Time;durP1;ratioP1;P1;durP2;ratioP2;P2;SDS_P1;SDS_P2;PMS_P1;PMS_P2;Temp;Humidity;BMP_temperature;BMP_pressure;BME280_temperature;BME280_humidity;BME280_pressure;Samples;Min_cycle;Max_cycle;Signal;HPM_P1;HPM_P2
2022/02/11 00:08:46;;;;;;;7.85;6.10;;;;;;;;;;5053650;28;20111;-76
2022/02/11 00:11:18;;;;;;;7.30;5.93;;;;;;;;;;5052399;28;20029;-75
2022/02/11 00:13:44;;;;;;;9.23;6.15;;;;;;;;;;5053611;28;20025;-74
2022/02/11 00:16:09;;;;;;;8.23;5.95;;;;;;;;;;5050865;28;20052;-71
2022/02/11 00:18:35;;;;;;;9.57;6.68;;;;;;;;;;5053376;28;20522;-70
2022/02/11 00:21:00;;;;;;;8.52;6.22;;;;;;;;;;5057440;28;20043;-70
2022/02/11 00:23:26;;;;;;;8.82;6.25;;;;;;;;;;5059046;28;20033;-70
2022/02/11 00:25:57;;;;;;;9.70;6.70;;;;;;;;;;5058661;28;20017;-70
2022/02/11 00:33:38;;;;;;;6.97;5.93;;;;;;;;;;5059659;28;20029;-70
2022/02/11 00:36:06;;;;;;;6.03;5.05;;;;;;;;;;5058410;28;20021;-70
2022/02/11 00:39:07;;;;;;;8.55;6.18;;;;;;;;;;5058409;28;20021;-70
2022/02/11 01:02:40;;;;;;;7.57;5.47;;;;;;;;;;5059702;28;20029;-70
2022/02/11 01:05:06;;;;;;;7.30;4.72;;;;;;;;;;5059455;28;20494;-70
2022/02/11 01:07:32;;;;;;;7.90;5.45;;;;;;;;;;5059573;28;20025;-70
2022/02/11 01:09:57;;;;;;;7.60;5.75;;;;;;;;;;5058216;28;20032;-72
2022/02/11 01:12:25;;;;;;;5.72;4.95;;;;;;;;;;5058184;28;20020;-72
2022/02/11 01:14:52;;;;;;;5.32;4.68;;;;;;;;;;5059511;28;20479;-70
2022/02/11 01:27:33;;;;;;;6.18;4.88;;;;;;;;;;5059370;28;20120;-71
2022/02/11 01:53:40;;;;;;;7.35;5.38;;;;;;;;;;5054709;28;20231;-71
2022/02/11 01:56:20;;;;;;;6.00;5.22;;;;;;;;;;5056130;28;20075;-71
2022/02/11 02:27:21;;;;;;;8.20;6.70;;;;;;;;;;5054139;28;20471;-71
2022/02/11 02:38:19;;;;;;;8.60;6.85;;;;;;;;;;5054933;28;20112;-70
2022/02/11 03:51:13;;;;;;;12.80;9.27;;;;;;;;;;5053644;28;20029;-72
2022/02/11 04:56:45;;;;;;;1.35;1.25;;;;;;;;;;5029185;28;20168;-72
2022/02/11 05:01:54;;;;;;;1.38;1.30;;;;;;;;;;5049454;28;20116;-72
2022/02/11 05:04:20;;;;;;;1.23;1.23;;;;;;;;;;5049297;28;20100;-72
2022/02/11 05:06:46;;;;;;;1.13;1.00;;;;;;;;;;5065127;28;20091;-72
2022/02/11 05:09:11;;;;;;;1.15;1.08;;;;;;;;;;5053094;28;20539;-71
2022/02/11 05:11:37;;;;;;;4.45;3.08;;;;;;;;;;5054231;28;20530;-71
2022/02/11 05:14:04;;;;;;;20.52;10.02;;;;;;;;;;5050752;28;20107;-71
2022/02/11 05:16:30;;;;;;;41.47;20.88;;;;;;;;;;5050442;28;20045;-72
2022/02/11 05:18:55;;;;;;;47.75;21.40;;;;;;;;;;5052395;28;20041;-71
2022/02/11 05:21:21;;;;;;;46.58;20.65;;;;;;;;;;5052177;28;20031;-72
2022/02/11 05:23:46;;;;;;;8.50;6.20;;;;;;;;;;5052580;28;20037;-71
2022/02/11 05:26:12;;;;;;;5.47;4.32;;;;;;;;;;5051671;28;20057;-71
2022/02/11 05:28:37;;;;;;;4.30;4.00;;;;;;;;;;5068208;28;20025;-71
2022/02/11 05:31:03;;;;;;;3.10;2.90;;;;;;;;;;5052553;28;20196;-72
2022/02/11 05:33:29;;;;;;;2.92;2.72;;;;;;;;;;5052468;28;20021;-72
2022/02/11 05:35:55;;;;;;;4.32;3.53;;;;;;;;;;5052204;28;20124;-72
2022/02/11 05:38:20;;;;;;;31.10;14.02;;;;;;;;;;5052531;28;20546;-72
2022/02/11 05:40:46;;;;;;;32.58;15.95;;;;;;;;;;5050873;28;20111;-72
2022/02/11 05:43:12;;;;;;;18.88;10.25;;;;;;;;;;5052591;28;20581;-72
2022/02/11 05:45:37;;;;;;;11.00;6.93;;;;;;;;;;5052696;28;20025;-72
2022/02/11 05:48:04;;;;;;;4.00;2.70;;;;;;;;;;5052276;28;20402;-71
2022/02/11 05:50:30;;;;;;;2.50;2.30;;;;;;;;;;5051598;28;20039;-71
2022/02/11 05:52:56;;;;;;;4.65;3.47;;;;;;;;;;5052018;28;20017;-72
2022/02/11 05:55:21;;;;;;;15.88;7.72;;;;;;;;;;5051876;28;20114;-70
2022/02/11 05:57:47;;;;;;;8.82;6.38;;;;;;;;;;5051185;28;20029;-72
2022/02/11 06:00:12;;;;;;;11.52;6.20;;;;;;;;;;5051756;28;20445;-71
2022/02/11 06:02:38;;;;;;;11.38;7.53;;;;;;;;;;5051929;28;20032;-71
2022/02/11 06:05:04;;;;;;;13.10;9.57;;;;;;;;;;5051992;28;20398;-71
2022/02/11 06:07:29;;;;;;;10.80;9.45;;;;;;;;;;5051950;28;20024;-71
2022/02/11 06:09:54;;;;;;;10.82;7.57;;;;;;;;;;5067202;28;20044;-71
2022/02/11 06:12:20;;;;;;;14.13;7.60;;;;;;;;;;5051014;28;20089;-71
2022/02/11 06:14:46;;;;;;;16.38;8.93;;;;;;;;;;5051830;28;20041;-71
2022/02/11 06:17:12;;;;;;;21.20;9.70;;;;;;;;;;5051479;28;20053;-71
2022/02/11 06:19:37;;;;;;;11.45;7.38;;;;;;;;;;5050299;28;20048;-71
2022/02/11 06:22:03;;;;;;;11.73;7.40;;;;;;;;;;5050286;28;20028;-71
2022/02/11 06:24:28;;;;;;;13.20;9.40;;;;;;;;;;5051896;28;20743;-71
2022/02/11 06:26:53;;;;;;;16.63;9.35;;;;;;;;;;5050386;28;20120;-71
2022/02/11 06:29:19;;;;;;;12.60;10.18;;;;;;;;;;5051832;28;20040;-71
2022/02/11 06:31:44;;;;;;;11.10;9.88;;;;;;;;;;5051559;28;20554;-71
2022/02/11 06:34:10;;;;;;;8.82;7.93;;;;;;;;;;5051279;28;20032;-72
2022/02/11 06:36:35;;;;;;;8.02;6.85;;;;;;;;;;5051661;28;20025;-71
2022/02/11 06:39:02;;;;;;;8.20;7.50;;;;;;;;;;5051288;28;20028;-71
2022/02/11 06:41:27;;;;;;;10.30;7.65;;;;;;;;;;5049417;28;20023;-71
2022/02/11 06:43:53;;;;;;;50.35;17.73;;;;;;;;;;5051488;28;20036;-70
2022/02/11 06:46:21;;;;;;;41.25;16.23;;;;;;;;;;5051416;28;20025;-71
2022/02/11 06:48:48;;;;;;;14.65;8.30;;;;;;;;;;5051350;28;20037;-71
2022/02/11 06:51:14;;;;;;;9.20;6.68;;;;;;;;;;5050842;28;20021;-71
2022/02/11 06:53:39;;;;;;;5.45;4.93;;;;;;;;;;5050914;28;20044;-71
2022/02/11 06:56:05;;;;;;;4.82;3.65;;;;;;;;;;5049460;28;20486;-71
2022/02/11 06:58:30;;;;;;;2.50;2.40;;;;;;;;;;5053240;28;20052;-71
2022/02/11 07:00:56;;;;;;;1.80;1.70;;;;;;;;;;5074000;28;20032;-71
2022/02/11 07:03:23;;;;;;;1.52;1.42;;;;;;;;;;5074315;28;20051;-71
2022/02/11 07:05:51;;;;;;;2.05;1.60;;;;;;;;;;5056229;28;20032;-71
2022/02/11 07:08:17;;;;;;;2.20;1.65;;;;;;;;;;5053279;28;20068;-71
2022/02/11 07:10:43;;;;;;;19.73;17.45;;;;;;;;;;5069662;28;20475;-71
2022/02/11 07:13:13;;;;;;;109.47;74.38;;;;;;;;;;5052895;28;20032;-71
2022/02/11 07:15:39;;;;;;;94.40;58.10;;;;;;;;;;5053904;28;20048;-71
2022/02/11 07:21:53;;;;;;;43.47;26.42;;;;;;;;;;5054675;28;20032;-71
2022/02/11 07:27:54;;;;;;;22.85;16.23;;;;;;;;;;5054556;28;20559;-71
2022/02/11 07:33:55;;;;;;;21.20;13.20;;;;;;;;;;5054234;28;20151;-71
2022/02/11 07:39:57;;;;;;;10.57;8.27;;;;;;;;;;5054041;28;20035;-72
2022/02/11 07:45:57;;;;;;;23.55;19.42;;;;;;;;;;5053976;28;20474;-72
2022/02/11 07:51:57;;;;;;;142.75;81.47;;;;;;;;;;5053560;28;20040;-71
2022/02/11 07:54:23;;;;;;;88.07;49.70;;;;;;;;;;5053401;28;20040;-71
2022/02/11 07:56:48;;;;;;;87.50;48.88;;;;;;;;;;5053238;28;20021;-71
2022/02/11 07:59:13;;;;;;;32.35;19.80;;;;;;;;;;5053070;28;20036;-71
2022/02/11 08:01:39;;;;;;;10.25;8.35;;;;;;;;;;5053191;28;20104;-72
2022/02/11 08:04:05;;;;;;;7.22;6.35;;;;;;;;;;5053106;28;20029;-71
2022/02/11 08:06:30;;;;;;;12.52;9.75;;;;;;;;;;5053183;28;20146;-71
2022/02/11 08:08:56;;;;;;;12.10;8.15;;;;;;;;;;5053286;28;20123;-71
2022/02/11 08:11:21;;;;;;;8.02;7.20;;;;;;;;;;5051868;28;20151;-71
2022/02/11 08:13:47;;;;;;;9.38;7.00;;;;;;;;;;5051863;28;20033;-72
2022/02/11 08:16:12;;;;;;;7.60;6.80;;;;;;;;;;5052449;28;20118;-72
2022/02/11 08:18:38;;;;;;;12.80;9.38;;;;;;;;;;5051775;28;20045;-72
2022/02/11 08:21:04;;;;;;;13.55;8.10;;;;;;;;;;5051784;28;20057;-71
2022/02/11 08:23:29;;;;;;;10.07;8.38;;;;;;;;;;5051874;28;20083;-71
2022/02/11 08:25:54;;;;;;;12.40;8.07;;;;;;;;;;5053023;28;20020;-71
2022/02/11 08:28:20;;;;;;;10.80;7.78;;;;;;;;;;5068386;28;20036;-71
2022/02/11 08:30:49;;;;;;;17.67;12.48;;;;;;;;;;5052767;28;20021;-71
2022/02/11 08:33:15;;;;;;;9.68;7.82;;;;;;;;;;5052924;28;20032;-71
2022/02/11 08:35:41;;;;;;;10.75;8.60;;;;;;;;;;5051648;28;20056;-72
2022/02/11 08:38:06;;;;;;;11.68;9.32;;;;;;;;;;5052929;28;20060;-72
2022/02/11 08:40:35;;;;;;;11.30;10.00;;;;;;;;;;5052784;28;20192;-72
2022/02/11 08:43:01;;;;;;;12.82;10.05;;;;;;;;;;5056881;28;20029;-72
2022/02/11 08:45:27;;;;;;;13.93;10.30;;;;;;;;;;5056956;28;20039;-71
2022/02/11 08:47:54;;;;;;;13.63;10.80;;;;;;;;;;5056832;28;20032;-71
2022/02/11 08:50:20;;;;;;;11.55;9.82;;;;;;;;;;5056851;28;20090;-71
2022/02/11 08:52:46;;;;;;;13.05;9.93;;;;;;;;;;5056734;28;20028;-71
2022/02/11 08:55:11;;;;;;;17.98;11.30;;;;;;;;;;5056560;28;20025;-72
2022/02/11 08:57:45;;;;;;;18.05;12.25;;;;;;;;;;5056570;28;20189;-71
2022/02/11 09:00:11;;;;;;;13.88;10.40;;;;;;;;;;5055301;28;20041;-71
2022/02/11 09:02:36;;;;;;;14.88;11.35;;;;;;;;;;5056460;28;20032;-71
2022/02/11 09:05:02;;;;;;;18.95;13.48;;;;;;;;;;5056448;28;20082;-71
2022/02/11 09:07:27;;;;;;;16.85;11.80;;;;;;;;;;5056566;28;20017;-71
2022/02/11 09:09:53;;;;;;;19.00;15.70;;;;;;;;;;5056465;28;20493;-72
2022/02/11 09:12:18;;;;;;;25.98;22.40;;;;;;;;;;5056466;28;20029;-72
2022/02/11 09:14:43;;;;;;;15.50;12.63;;;;;;;;;;5056362;28;20032;-71
2022/02/11 09:17:09;;;;;;;18.52;14.90;;;;;;;;;;5054782;28;20047;-72
2022/02/11 09:19:34;;;;;;;46.50;34.40;;;;;;;;;;5056136;28;20029;-71
2022/02/11 09:22:00;;;;;;;40.42;29.08;;;;;;;;;;5054985;28;20111;-72
2022/02/11 09:24:26;;;;;;;32.38;23.75;;;;;;;;;;5071583;28;20072;-72
2022/02/11 09:26:51;;;;;;;25.45;19.20;;;;;;;;;;5056043;28;20036;-72
2022/02/11 09:29:17;;;;;;;21.10;14.38;;;;;;;;;;5056061;28;20029;-72
2022/02/11 09:31:42;;;;;;;17.17;14.38;;;;;;;;;;5056026;28;20476;-72
2022/02/11 09:34:12;;;;;;;19.20;15.88;;;;;;;;;;5056047;28;20040;-72
2022/02/11 09:36:39;;;;;;;25.10;18.00;;;;;;;;;;5055921;28;20033;-71
2022/02/11 09:39:06;;;;;;;25.70;17.80;;;;;;;;;;5055660;28;20019;-71
2022/02/11 09:41:32;;;;;;;24.83;18.02;;;;;;;;;;5055805;28;20421;-71
2022/02/11 09:44:00;;;;;;;27.38;16.77;;;;;;;;;;5055891;28;20066;-71
2022/02/11 09:46:29;;;;;;;25.45;15.90;;;;;;;;;;5055616;28;20025;-71
2022/02/11 09:48:54;;;;;;;25.58;17.35;;;;;;;;;;5055650;28;20115;-71
2022/02/11 09:51:20;;;;;;;18.08;13.15;;;;;;;;;;5055604;28;20560;-71
2022/02/11 09:53:45;;;;;;;21.60;14.60;;;;;;;;;;5054836;28;20028;-71
2022/02/11 09:56:11;;;;;;;20.92;14.80;;;;;;;;;;5055484;28;20434;-71
2022/02/11 09:58:36;;;;;;;26.45;17.40;;;;;;;;;;5055341;28;20043;-71
2022/02/11 10:01:02;;;;;;;25.63;17.08;;;;;;;;;;5055325;28;20037;-71
2022/02/11 10:03:30;;;;;;;18.90;12.98;;;;;;;;;;5055342;28;20035;-72
2022/02/11 10:05:57;;;;;;;23.50;15.65;;;;;;;;;;5055293;28;20025;-71
2022/02/11 10:08:24;;;;;;;27.73;16.33;;;;;;;;;;5054016;28;20016;-71
2022/02/11 10:10:52;;;;;;;18.17;10.80;;;;;;;;;;5055349;28;20035;-71
2022/02/11 10:13:18;;;;;;;18.98;11.77;;;;;;;;;;5055201;28;20020;-71
2022/02/11 10:15:45;;;;;;;18.35;10.90;;;;;;;;;;5054813;28;20052;-71
2022/02/11 10:18:12;;;;;;;19.67;12.98;;;;;;;;;;5055176;28;20488;-72
2022/02/11 10:20:39;;;;;;;21.35;12.57;;;;;;;;;;5055169;28;20021;-71
2022/02/11 10:23:19;;;;;;;16.10;11.35;;;;;;;;;;5055105;28;20029;-72
2022/02/11 10:25:52;;;;;;;17.83;11.18;;;;;;;;;;5055311;28;20067;-71
2022/02/11 10:28:24;;;;;;;24.83;13.88;;;;;;;;;;5055058;28;20114;-72
2022/02/11 10:31:06;;;;;;;22.70;13.93;;;;;;;;;;5054851;28;20029;-72
2022/02/11 10:33:52;;;;;;;18.50;10.65;;;;;;;;;;5054887;28;20033;-71
2022/02/11 10:36:19;;;;;;;15.25;10.30;;;;;;;;;;5049666;28;20403;-71
2022/02/11 10:38:45;;;;;;;14.95;10.68;;;;;;;;;;5053589;28;20028;-71
2022/02/11 10:41:11;;;;;;;18.02;11.38;;;;;;;;;;5054805;28;20551;-72
2022/02/11 10:43:36;;;;;;;15.80;10.55;;;;;;;;;;5054261;28;20096;-72
2022/02/11 10:46:03;;;;;;;18.35;11.23;;;;;;;;;;5054667;28;20429;-71
2022/02/11 10:48:34;;;;;;;15.35;9.65;;;;;;;;;;5054628;28;20025;-71
2022/02/11 10:51:01;;;;;;;16.02;10.77;;;;;;;;;;5054421;28;20051;-72
2022/02/11 10:53:31;;;;;;;17.38;10.60;;;;;;;;;;5054365;28;20017;-71
2022/02/11 10:55:57;;;;;;;18.02;10.82;;;;;;;;;;5054643;28;20029;-71
2022/02/11 10:58:23;;;;;;;20.25;11.57;;;;;;;;;;5054432;28;20033;-71
2022/02/11 11:00:49;;;;;;;16.95;9.85;;;;;;;;;;5054275;28;20076;-71
2022/02/11 11:03:15;;;;;;;16.85;10.10;;;;;;;;;;5054306;28;20028;-71
2022/02/11 11:05:44;;;;;;;15.82;10.25;;;;;;;;;;5053194;28;20044;-71
2022/02/11 11:08:10;;;;;;;18.95;12.80;;;;;;;;;;5054156;28;20013;-71
2022/02/11 11:10:39;;;;;;;19.67;12.23;;;;;;;;;;5054082;28;20056;-71
2022/02/11 11:13:05;;;;;;;19.45;13.07;;;;;;;;;;5052825;28;20068;-72
2022/02/11 11:15:31;;;;;;;18.52;11.50;;;;;;;;;;5053734;28;20028;-72
2022/02/11 11:17:58;;;;;;;15.52;10.00;;;;;;;;;;5053950;28;20025;-72
2022/02/11 11:20:25;;;;;;;13.35;8.50;;;;;;;;;;5053866;28;20029;-72
2022/02/11 11:22:52;;;;;;;13.95;9.63;;;;;;;;;;5053950;28;20029;-71
2022/02/11 11:25:18;;;;;;;17.33;11.07;;;;;;;;;;5053822;28;20021;-71
2022/02/11 11:27:59;;;;;;;15.30;10.32;;;;;;;;;;5053809;28;20364;-71
2022/02/11 11:30:24;;;;;;;;;;;;;;;;;;5054302;28;20110;-72
2022/02/11 11:33:05;;;;;;;14.27;9.15;;;;;;;;;;5053829;28;19905;-71
2022/02/11 11:35:31;;;;;;;13.65;9.43;;;;;;;;;;5053648;28;20029;-72
2022/02/11 11:38:15;;;;;;;16.00;9.65;;;;;;;;;;5051566;28;20072;-71
2022/02/11 11:41:03;;;;;;;17.45;11.23;;;;;;;;;;5053556;28;20021;-71
2022/02/11 11:43:32;;;;;;;17.25;11.90;;;;;;;;;;5048122;28;20059;-71
2022/02/11 11:46:04;;;;;;;16.45;10.85;;;;;;;;;;5053609;28;20111;-71
2022/02/11 11:48:50;;;;;;;16.02;9.70;;;;;;;;;;5053625;28;20032;-71
2022/02/11 11:51:15;;;;;;;16.80;10.40;;;;;;;;;;5053374;28;20043;-72
2022/02/11 11:53:41;;;;;;;13.40;9.65;;;;;;;;;;5052037;28;20025;-71
2022/02/11 11:56:24;;;;;;;12.38;7.82;;;;;;;;;;5053325;28;20033;-71
2022/02/11 11:58:51;;;;;;;12.80;7.72;;;;;;;;;;5053369;28;20124;-71
2022/02/11 12:01:18;;;;;;;14.65;8.13;;;;;;;;;;5053316;28;20427;-71
2022/02/11 12:04:01;;;;;;;9.45;6.55;;;;;;;;;;5053302;28;20036;-71
2022/02/11 12:06:30;;;;;;;11.10;7.03;;;;;;;;;;5053284;28;20387;-71
2022/02/11 12:08:56;;;;;;;8.93;5.60;;;;;;;;;;5053360;28;20446;-71
2022/02/11 12:11:22;;;;;;;7.15;5.30;;;;;;;;;;5053168;28;20117;-71
2022/02/11 12:13:47;;;;;;;8.05;5.93;;;;;;;;;;5053028;28;20055;-71
2022/02/11 12:16:13;;;;;;;6.07;5.32;;;;;;;;;;5051115;28;20045;-71
2022/02/11 12:18:42;;;;;;;7.18;5.20;;;;;;;;;;5052996;28;20486;-71
2022/02/11 12:21:07;;;;;;;7.03;4.82;;;;;;;;;;5053070;28;20085;-71
2022/02/11 12:29:03;;;;;;;5.80;5.30;;;;;;;;;;5053243;28;20036;-71
2022/02/11 12:31:29;;;;;;;5.80;5.20;;;;;;;;;;5051681;28;20124;-71
2022/02/11 12:34:15;;;;;;;6.93;5.03;;;;;;;;;;5052963;28;20040;-71
2022/02/11 12:36:40;;;;;;;6.22;4.43;;;;;;;;;;5053019;28;20098;-71
2022/02/11 12:39:05;;;;;;;7.13;4.40;;;;;;;;;;5051592;28;20029;-72
2022/02/11 12:41:51;;;;;;;11.45;7.03;;;;;;;;;;5052865;28;20483;-71
2022/02/11 12:44:26;;;;;;;12.70;6.97;;;;;;;;;;5052889;28;20075;-71
2022/02/11 12:46:53;;;;;;;12.63;8.30;;;;;;;;;;5051492;28;20482;-71
2022/02/11 12:49:19;;;;;;;11.60;7.68;;;;;;;;;;5051624;28;20422;-72
2022/02/11 12:51:51;;;;;;;9.63;6.60;;;;;;;;;;5052628;28;20082;-71
2022/02/11 12:54:19;;;;;;;3.80;2.70;;;;;;;;;;5052765;28;20041;-71
2022/02/11 12:56:44;;;;;;;8.10;6.13;;;;;;;;;;5052793;28;20028;-71
2022/02/11 12:59:10;;;;;;;5.95;4.03;;;;;;;;;;5052733;28;20029;-71
2022/02/11 13:01:35;;;;;;;7.10;5.90;;;;;;;;;;5052596;28;20537;-71
2022/02/11 13:04:01;;;;;;;4.70;4.22;;;;;;;;;;5052655;28;20025;-71
2022/02/11 13:06:26;;;;;;;4.32;3.92;;;;;;;;;;5052711;28;20081;-71
2022/02/11 13:09:01;;;;;;;4.90;4.30;;;;;;;;;;5051408;28;20499;-71
2022/02/11 13:11:27;;;;;;;6.38;4.93;;;;;;;;;;5052504;28;20033;-71
2022/02/11 13:14:01;;;;;;;5.68;4.93;;;;;;;;;;5052443;28;20378;-71
2022/02/11 13:16:27;;;;;;;6.32;5.05;;;;;;;;;;5051901;28;20487;-71
2022/02/11 13:18:53;;;;;;;5.50;4.47;;;;;;;;;;5052346;28;20116;-71
2022/02/11 13:21:21;;;;;;;6.15;5.55;;;;;;;;;;5052546;28;20060;-71
2022/02/11 13:23:50;;;;;;;5.32;4.53;;;;;;;;;;5052510;28;20024;-72
2022/02/11 13:26:15;;;;;;;7.70;5.45;;;;;;;;;;5067447;28;20028;-71
2022/02/11 13:28:45;;;;;;;6.75;4.40;;;;;;;;;;5054488;28;20070;-71
2022/02/11 13:31:11;;;;;;;4.28;3.83;;;;;;;;;;5055979;28;20075;-71
2022/02/11 13:33:36;;;;;;;4.18;3.78;;;;;;;;;;5055977;28;20052;-71
2022/02/11 13:36:03;;;;;;;5.88;4.13;;;;;;;;;;5055827;28;20032;-72
2022/02/11 13:38:33;;;;;;;3.30;2.28;;;;;;;;;;5055747;28;20023;-72
2022/02/11 13:41:06;;;;;;;2.55;2.35;;;;;;;;;;5056049;28;20127;-71
2022/02/11 13:46:27;;;;;;;2.40;2.00;;;;;;;;;;5055940;28;20036;-71
2022/02/11 13:48:54;;;;;;;2.83;2.63;;;;;;;;;;5055748;28;20021;-70
2022/02/11 13:51:20;;;;;;;2.30;2.10;;;;;;;;;;5055692;28;20032;-70
2022/02/11 13:53:52;;;;;;;4.40;3.80;;;;;;;;;;5055924;28;20075;-70
2022/02/11 13:56:22;;;;;;;2.10;1.90;;;;;;;;;;5055650;28;20037;-70
2022/02/11 13:59:08;;;;;;;3.03;2.25;;;;;;;;;;5054424;28;20071;-70
2022/02/11 14:01:35;;;;;;;1.88;1.45;;;;;;;;;;5055589;28;20029;-70
2022/02/11 14:04:02;;;;;;;1.58;1.48;;;;;;;;;;5055846;28;20032;-70
2022/02/11 14:06:34;;;;;;;1.70;1.60;;;;;;;;;;5071337;28;20037;-70
2022/02/11 14:09:02;;;;;;;2.08;1.95;;;;;;;;;;5055818;28;20029;-71
2022/02/11 14:11:33;;;;;;;3.72;2.83;;;;;;;;;;5055449;28;20474;-70
2022/02/11 14:14:07;;;;;;;2.53;1.90;;;;;;;;;;5063110;28;20038;-70
2022/02/11 14:16:33;;;;;;;2.00;1.75;;;;;;;;;;5055025;28;20040;-71
2022/02/11 14:18:58;;;;;;;2.47;1.98;;;;;;;;;;5055148;28;20178;-70
2022/02/11 14:21:24;;;;;;;1.52;1.42;;;;;;;;;;5055335;28;20390;-70
2022/02/11 14:23:49;;;;;;;1.73;1.63;;;;;;;;;;5055209;28;20147;-70
2022/02/11 14:26:15;;;;;;;2.13;1.80;;;;;;;;;;5055382;28;20108;-70
2022/02/11 14:28:40;;;;;;;2.40;2.00;;;;;;;;;;5055167;28;20053;-70
2022/02/11 14:31:07;;;;;;;2.53;2.10;;;;;;;;;;5055179;28;20044;-70
2022/02/11 14:33:33;;;;;;;2.00;1.90;;;;;;;;;;5055038;28;20025;-70
2022/02/11 14:35:58;;;;;;;1.80;1.70;;;;;;;;;;5055095;28;20037;-70
2022/02/11 14:38:24;;;;;;;2.33;1.60;;;;;;;;;;5054910;28;20017;-71
2022/02/11 14:43:34;;;;;;;2.78;2.30;;;;;;;;;;5054875;28;20032;-70
2022/02/11 14:46:03;;;;;;;2.83;2.20;;;;;;;;;;5057489;28;20008;-71
2022/02/11 14:48:28;;;;;;;2.50;1.90;;;;;;;;;;5057385;28;20021;-71
2022/02/11 14:50:54;;;;;;;2.03;1.70;;;;;;;;;;5066876;28;20091;-70
2022/02/11 14:53:20;;;;;;;1.70;1.60;;;;;;;;;;5073544;28;20120;-70
2022/02/11 14:55:45;;;;;;;1.70;1.60;;;;;;;;;;5074884;28;20427;-70
2022/02/11 14:58:11;;;;;;;2.10;2.00;;;;;;;;;;5073352;28;20020;-72
2022/02/11 15:00:36;;;;;;;2.22;2.00;;;;;;;;;;5074613;28;20024;-71
2022/02/11 15:03:02;;;;;;;1.88;1.77;;;;;;;;;;5074343;28;20054;-70
2022/02/11 15:05:27;;;;;;;2.15;1.70;;;;;;;;;;5074769;28;20020;-70
2022/02/11 15:07:53;;;;;;;2.15;2.05;;;;;;;;;;5074448;28;20446;-70
2022/02/11 15:10:20;;;;;;;2.33;2.13;;;;;;;;;;5070953;28;20055;-71
2022/02/11 15:12:45;;;;;;;2.60;2.40;;;;;;;;;;5071533;28;20174;-70
2022/02/11 15:15:11;;;;;;;2.42;2.22;;;;;;;;;;5058896;28;20127;-71
2022/02/11 15:17:37;;;;;;;25.45;8.00;;;;;;;;;;5054065;28;20057;-71
2022/02/11 15:20:03;;;;;;;7.25;3.90;;;;;;;;;;5054328;28;20059;-71
2022/02/11 15:22:28;;;;;;;2.33;2.05;;;;;;;;;;5054176;28;20072;-71
2022/02/11 15:24:56;;;;;;;3.85;2.83;;;;;;;;;;5054045;28;20055;-71
2022/02/11 15:27:22;;;;;;;2.60;2.40;;;;;;;;;;5067639;28;20057;-71
2022/02/11 15:29:47;;;;;;;2.90;2.28;;;;;;;;;;5074256;28;20020;-71
2022/02/11 15:32:13;;;;;;;3.95;2.08;;;;;;;;;;5073994;28;20025;-69
2022/02/11 15:34:39;;;;;;;2.13;1.67;;;;;;;;;;5074015;28;20108;-73
2022/02/11 15:37:07;;;;;;;2.08;1.88;;;;;;;;;;5073869;28;20558;-73
2022/02/11 15:39:33;;;;;;;5.85;4.53;;;;;;;;;;5073468;28;20025;-73
2022/02/11 15:42:00;;;;;;;4.40;2.72;;;;;;;;;;5073664;28;20025;-75
2022/02/11 15:44:26;;;;;;;2.30;2.00;;;;;;;;;;5072486;28;20021;-75
2022/02/11 15:46:51;;;;;;;3.60;2.30;;;;;;;;;;5073819;28;20035;-75
2022/02/11 15:49:17;;;;;;;16.70;6.15;;;;;;;;;;5073946;28;20035;-75
2022/02/11 15:51:42;;;;;;;8.55;3.88;;;;;;;;;;5071467;28;20024;-74
2022/02/11 15:54:08;;;;;;;3.97;2.85;;;;;;;;;;5072320;28;20478;-75
2022/02/11 15:56:33;;;;;;;18.13;7.75;;;;;;;;;;5072327;28;20033;-75
2022/02/11 15:58:59;;;;;;;2.72;2.50;;;;;;;;;;5073549;28;20028;-74
2022/02/11 16:01:24;;;;;;;3.55;2.17;;;;;;;;;;5073506;28;20032;-70
2022/02/11 16:03:51;;;;;;;4.82;2.85;;;;;;;;;;5073058;28;20012;-71
2022/02/11 16:06:16;;;;;;;3.10;2.80;;;;;;;;;;5073597;28;20017;-71
2022/02/11 16:08:42;;;;;;;2.60;2.22;;;;;;;;;;5073299;28;20537;-70
2022/02/11 16:11:08;;;;;;;2.33;2.13;;;;;;;;;;5061956;28;20025;-71
2022/02/11 16:13:33;;;;;;;3.10;2.58;;;;;;;;;;5056929;28;20302;-71
2022/02/11 16:15:59;;;;;;;2.83;2.50;;;;;;;;;;5071570;28;20044;-71
2022/02/11 16:18:25;;;;;;;2.63;2.42;;;;;;;;;;5070483;28;20029;-70
2022/02/11 16:20:51;;;;;;;3.47;2.50;;;;;;;;;;5061304;28;20478;-71
2022/02/11 16:23:18;;;;;;;2.60;2.00;;;;;;;;;;5053506;28;20020;-70
2022/02/11 16:25:45;;;;;;;2.47;2.28;;;;;;;;;;5053555;28;20029;-71
2022/02/11 16:28:11;;;;;;;3.95;2.53;;;;;;;;;;5058447;28;20514;-70
2022/02/11 16:30:38;;;;;;;2.67;2.47;;;;;;;;;;5071851;28;20024;-70
2022/02/11 16:33:04;;;;;;;2.60;2.08;;;;;;;;;;5073546;28;20021;-70
2022/02/11 16:35:31;;;;;;;4.20;2.60;;;;;;;;;;5073214;28;20021;-70
2022/02/11 16:37:56;;;;;;;5.97;3.45;;;;;;;;;;5073296;28;20739;-70
2022/02/11 16:40:21;;;;;;;5.28;3.72;;;;;;;;;;5088699;28;20036;-69
2022/02/11 16:42:47;;;;;;;5.07;3.78;;;;;;;;;;5072930;28;20024;-69
2022/02/11 16:45:13;;;;;;;5.65;3.42;;;;;;;;;;5072800;28;20025;-70
2022/02/11 16:47:40;;;;;;;3.88;3.22;;;;;;;;;;5071635;28;20016;-70
2022/02/11 16:50:06;;;;;;;4.00;2.78;;;;;;;;;;5071999;28;20032;-70
2022/02/11 16:52:33;;;;;;;3.65;2.92;;;;;;;;;;5072952;28;20433;-70
2022/02/11 16:55:05;;;;;;;3.60;2.90;;;;;;;;;;5073207;28;20032;-69
2022/02/11 16:57:31;;;;;;;3.03;2.58;;;;;;;;;;5072730;28;20032;-70
2022/02/11 16:59:57;;;;;;;4.47;2.80;;;;;;;;;;5073068;28;20099;-69
2022/02/11 17:02:23;;;;;;;2.92;2.60;;;;;;;;;;5073032;28;20537;-70
2022/02/11 17:04:49;;;;;;;3.17;2.28;;;;;;;;;;5076466;28;20208;-71
2022/02/11 17:07:15;;;;;;;4.15;3.10;;;;;;;;;;5076814;28;20025;-70
2022/02/11 17:09:40;;;;;;;4.28;3.28;;;;;;;;;;5076738;28;20021;-71
2022/02/11 17:12:06;;;;;;;5.32;3.35;;;;;;;;;;5076589;28;20037;-70
2022/02/11 17:14:31;;;;;;;4.40;3.17;;;;;;;;;;5076707;28;20455;-70
2022/02/11 17:16:57;;;;;;;2.72;2.53;;;;;;;;;;5076205;28;20056;-71
2022/02/11 17:19:23;;;;;;;2.80;2.50;;;;;;;;;;5076488;28;20165;-70
2022/02/11 17:21:49;;;;;;;1.80;1.70;;;;;;;;;;5070082;28;20029;-71
2022/02/11 17:24:16;;;;;;;2.50;2.10;;;;;;;;;;5065240;28;20519;-68
2022/02/11 17:26:42;;;;;;;2.67;2.47;;;;;;;;;;5066599;28;20016;-68
2022/02/11 17:29:09;;;;;;;3.55;2.97;;;;;;;;;;5069916;28;20013;-69
2022/02/11 17:31:35;;;;;;;3.75;3.20;;;;;;;;;;5060104;28;20534;-68
2022/02/11 17:34:01;;;;;;;5.00;3.72;;;;;;;;;;5056317;28;20497;-69
2022/02/11 17:36:27;;;;;;;5.68;3.60;;;;;;;;;;5056095;28;20029;-69
2022/02/11 17:38:52;;;;;;;5.85;3.53;;;;;;;;;;5055943;28;20111;-69
2022/02/11 17:41:23;;;;;;;4.50;3.33;;;;;;;;;;5056056;28;20103;-69
2022/02/11 17:43:48;;;;;;;;;;;;;;;;;;5055907;28;20033;-69
2022/02/11 17:46:14;;;;;;;3.67;2.70;;;;;;;;;;5071507;28;19908;-69
2022/02/11 17:48:40;;;;;;;5.75;3.50;;;;;;;;;;5055853;28;20028;-69
2022/02/11 17:51:05;;;;;;;5.63;3.35;;;;;;;;;;5055871;28;20017;-69
2022/02/11 17:53:31;;;;;;;6.30;3.95;;;;;;;;;;5055880;28;20068;-69
2022/02/11 17:55:56;;;;;;;3.97;3.50;;;;;;;;;;5055933;28;20086;-69
2022/02/11 17:58:23;;;;;;;5.85;3.72;;;;;;;;;;5054437;28;20552;-69
2022/02/11 18:00:48;;;;;;;3.90;2.83;;;;;;;;;;5055490;28;20017;-70
2022/02/11 18:03:15;;;;;;;3.53;2.67;;;;;;;;;;5055730;28;20029;-69
2022/02/11 18:05:42;;;;;;;4.15;2.72;;;;;;;;;;5055579;28;20463;-69
2022/02/11 18:08:08;;;;;;;6.15;3.20;;;;;;;;;;5055468;28;20033;-69
2022/02/11 18:10:33;;;;;;;3.08;2.80;;;;;;;;;;5055603;28;20020;-69
2022/02/11 18:12:59;;;;;;;3.60;3.10;;;;;;;;;;5055332;28;20032;-69
2022/02/11 18:15:24;;;;;;;5.03;3.78;;;;;;;;;;5055284;28;20028;-69
2022/02/11 18:17:50;;;;;;;4.75;3.53;;;;;;;;;;5035515;28;20099;-69
2022/02/11 18:20:16;;;;;;;5.43;4.03;;;;;;;;;;5035394;28;20423;-69
2022/02/11 18:22:42;;;;;;;4.45;3.60;;;;;;;;;;5035359;28;20460;-69
2022/02/11 18:25:09;;;;;;;3.25;2.95;;;;;;;;;;5035267;28;20492;-69
2022/02/11 18:27:34;;;;;;;5.32;3.72;;;;;;;;;;5035084;28;20038;-69
2022/02/11 18:30:00;;;;;;;3.92;3.53;;;;;;;;;;5033915;28;20021;-68
2022/02/11 18:32:26;;;;;;;6.25;3.83;;;;;;;;;;5035252;28;20056;-69
2022/02/11 18:34:51;;;;;;;5.18;4.20;;;;;;;;;;5034993;28;20491;-69
2022/02/11 18:37:16;;;;;;;6.28;4.07;;;;;;;;;;5034889;28;20048;-69
2022/02/11 18:39:42;;;;;;;6.95;3.90;;;;;;;;;;5034802;28;20562;-69
2022/02/11 18:42:07;;;;;;;4.57;3.70;;;;;;;;;;5034674;28;20084;-69
2022/02/11 18:44:33;;;;;;;4.93;3.50;;;;;;;;;;5034747;28;20018;-69
2022/02/11 18:47:00;;;;;;;5.50;3.60;;;;;;;;;;5034667;28;20025;-69
2022/02/11 18:49:26;;;;;;;5.25;3.38;;;;;;;;;;5034586;28;20021;-69
2022/02/11 18:51:53;;;;;;;6.10;3.60;;;;;;;;;;5034712;28;20471;-69
2022/02/11 18:54:18;;;;;;;4.72;3.85;;;;;;;;;;5034581;28;20024;-68
2022/02/11 18:56:49;;;;;;;5.22;3.97;;;;;;;;;;5034222;28;20030;-69
2022/02/11 19:01:59;;;;;;;6.72;4.97;;;;;;;;;;5034482;28;20037;-69
2022/02/11 19:04:25;;;;;;;15.25;9.07;;;;;;;;;;5034434;28;20024;-69
2022/02/11 19:06:50;;;;;;;29.00;15.20;;;;;;;;;;5032961;28;20049;-68
2022/02/11 19:09:16;;;;;;;20.02;11.60;;;;;;;;;;5034242;28;20079;-68
2022/02/11 19:11:42;;;;;;;17.63;11.20;;;;;;;;;;5034196;28;20122;-68